Terminal Aerodrome Forecast
Issued by NWS Shreveport, LA

Home | Current Version | Previous Version | Text Only | Print | Product List | Glossary On
Versions: 1 2 3 4 5 6 7 8 9 10 11 12 13 14
000
FTUS44 KSHV 020500 RRA
TAFTYR
TAF
KTYR 020557Z 0206/0306 16008KT P6SM SCT040
     FM020700 17008KT P6SM BKN025
      TEMPO 0209/0213 OVC015
     FM021400 19012KT P6SM BKN035
     FM022100 20013G20KT P6SM VCTS BKN050CB
      TEMPO 0221/0224 P6SM -TSRA BKN050CB
     FM030500 23014KT 4SM TSRA BR BKN035CB OVC070=

USA.gov is the U.S. government's official web portal to all federal, state and local government web resources and services.